Time;durP1;ratioP1;P1;durP2;ratioP2;P2;SDS_P1;SDS_P2;PMS_P1;PMS_P2;Temp;Humidity;BMP_temperature;BMP_pressure;BME280_temperature;BME280_humidity;BME280_pressure;Samples;Min_cycle;Max_cycle;Signal;HPM_P1;HPM_P2
2023/04/10 00:02:50;;;;;;;1999.90;999.90;;;6.90;99.90;;;;;;6716059;88;20215;-77
2023/04/10 00:12:52;;;;;;;1999.90;999.90;;;6.80;99.90;;;;;;6715899;88;20194;-76
2023/04/10 00:22:53;;;;;;;1999.90;999.90;;;6.50;99.90;;;;;;6721485;87;20210;-77
2023/04/10 00:32:54;;;;;;;1999.90;999.90;;;6.60;99.90;;;;;;6715172;88;20168;-77
2023/04/10 00:42:54;;;;;;;1999.90;999.90;;;6.50;99.90;;;;;;6723871;88;20302;-78
2023/04/10 00:52:56;;;;;;;1999.90;999.90;;;6.60;99.90;;;;;;6729010;88;20230;-78
2023/04/10 01:02:57;;;;;;;1999.90;999.90;;;6.50;99.90;;;;;;6719723;88;20389;-78
2023/04/10 01:13:06;;;;;;;1999.90;999.90;;;6.40;99.90;;;;;;6707140;88;20370;-78
2023/04/10 01:23:45;;;;;;;1999.90;999.90;;;6.50;99.90;;;;;;6710633;88;20268;-77
2023/04/10 01:33:51;;;;;;;1999.90;999.90;;;6.30;99.90;;;;;;6724585;88;20690;-78
2023/04/10 01:43:52;;;;;;;;;;;6.20;99.90;;;;;;6704570;88;20209;-77
2023/04/10 01:53:53;;;;;;;1999.90;999.90;;;6.10;99.90;;;;;;6679832;88;20578;-75
2023/04/10 02:03:54;;;;;;;1999.90;999.90;;;6.00;99.90;;;;;;6683006;88;20197;-76
2023/04/10 02:13:59;;;;;;;1999.90;999.90;;;6.00;99.90;;;;;;6708203;88;20303;-76
2023/04/10 02:24:00;;;;;;;1999.90;999.90;;;6.10;99.90;;;;;;6709619;77;20194;-77
2023/04/10 02:34:00;;;;;;;1999.90;999.90;;;6.20;99.90;;;;;;6697623;88;20274;-77
2023/04/10 02:44:01;;;;;;;1999.90;999.90;;;6.20;99.90;;;;;;6704432;88;20568;-76
2023/04/10 02:54:01;;;;;;;1999.90;999.90;;;6.10;99.90;;;;;;6707393;88;20290;-76
2023/04/10 03:04:02;;;;;;;1999.90;999.90;;;6.10;99.90;;;;;;6698662;88;20182;-77
2023/04/10 03:14:03;;;;;;;1999.90;999.90;;;6.10;99.90;;;;;;6707196;88;20218;-77
2023/04/10 03:24:05;;;;;;;1999.90;999.90;;;6.00;99.90;;;;;;6707513;88;20749;-76
2023/04/10 03:34:05;;;;;;;1999.90;999.90;;;5.90;99.90;;;;;;6688643;88;20182;-77
2023/04/10 03:44:06;;;;;;;1999.90;999.90;;;6.10;99.90;;;;;;6704458;88;20195;-74
2023/04/10 03:54:06;;;;;;;1999.90;999.90;;;5.90;99.90;;;;;;6704623;88;20213;-77
2023/04/10 04:04:07;;;;;;;1999.90;999.90;;;5.50;99.90;;;;;;6693847;88;20221;-76
2023/04/10 04:14:07;;;;;;;1999.90;999.90;;;5.30;99.90;;;;;;6699526;88;20305;-76
2023/04/10 04:24:08;;;;;;;1999.90;999.90;;;5.20;99.90;;;;;;6704488;88;20338;-76
2023/04/10 04:34:08;;;;;;;1999.90;999.90;;;5.10;99.90;;;;;;6702854;88;20198;-76
2023/04/10 04:44:09;;;;;;;1999.90;999.90;;;5.10;99.90;;;;;;6692058;88;20205;-76
2023/04/10 04:54:09;;;;;;;1999.90;999.90;;;4.90;99.90;;;;;;6699953;88;20353;-76
2023/04/10 05:04:10;;;;;;;1999.90;999.90;;;4.90;99.90;;;;;;6696103;88;20537;-77
2023/04/10 05:14:10;;;;;;;1999.90;999.90;;;5.00;99.90;;;;;;6703608;88;20317;-76
2023/04/10 05:24:11;;;;;;;1999.90;999.90;;;5.10;99.90;;;;;;6688584;88;20524;-77
2023/04/10 05:34:11;;;;;;;1999.90;999.90;;;5.00;99.90;;;;;;6702394;88;20220;-77
2023/04/10 05:44:12;;;;;;;1999.90;999.90;;;5.40;99.90;;;;;;6702030;88;20198;-76
2023/04/10 05:54:12;;;;;;;1999.90;999.90;;;6.00;99.90;;;;;;6704806;88;20244;-76
2023/04/10 06:04:13;;;;;;;1999.90;999.90;;;6.80;99.90;;;;;;6692679;88;20193;-77
2023/04/10 06:14:13;;;;;;;1999.90;999.90;;;7.40;99.90;;;;;;6697797;88;20208;-77
2023/04/10 06:24:14;;;;;;;1999.90;999.90;;;7.70;99.90;;;;;;6696939;88;20213;-76
2023/04/10 06:34:15;;;;;;;1999.90;999.90;;;8.00;99.90;;;;;;6702499;88;20308;-77
2023/04/10 06:44:15;;;;;;;1999.90;999.90;;;8.30;99.90;;;;;;6700005;88;20212;-77
2023/04/10 06:54:16;;;;;;;1999.90;999.90;;;8.80;99.90;;;;;;6699899;88;20773;-76
2023/04/10 07:04:16;;;;;;;1999.90;999.90;;;9.20;99.90;;;;;;6687001;88;20606;-75
2023/04/10 07:14:17;;;;;;;1999.90;999.90;;;9.50;99.90;;;;;;6702643;88;20242;-77
2023/04/10 07:24:18;;;;;;;1999.90;999.90;;;9.80;99.90;;;;;;6701273;88;20205;-77
2023/04/10 07:34:18;;;;;;;1999.90;999.90;;;10.30;99.90;;;;;;6700680;88;20735;-77
2023/04/10 07:44:19;;;;;;;1999.90;999.90;;;10.60;99.90;;;;;;6700317;88;20709;-77
2023/04/10 07:54:19;;;;;;;1999.90;999.90;;;11.20;99.90;;;;;;6701312;88;20209;-77
2023/04/10 08:04:23;;;;;;;1999.90;999.90;;;11.40;99.90;;;;;;6696954;88;20322;-77
2023/04/10 08:14:23;;;;;;;1999.90;999.90;;;11.50;99.90;;;;;;6698398;88;20194;-77
2023/04/10 08:24:24;;;;;;;1999.90;999.90;;;12.00;99.90;;;;;;6707647;77;20221;-77
2023/04/10 08:34:24;;;;;;;1999.90;999.90;;;12.00;99.90;;;;;;6707595;88;20185;-77
2023/04/10 08:44:25;;;;;;;1999.90;999.90;;;12.20;99.90;;;;;;6716025;88;20334;-78
2023/04/10 08:54:28;;;;;;;1999.90;999.90;;;12.80;99.90;;;;;;6715159;88;20748;-76
2023/04/10 09:04:29;;;;;;;1999.90;999.90;;;12.90;99.90;;;;;;6716658;88;20645;-76
2023/04/10 09:14:31;;;;;;;1999.90;999.90;;;13.10;99.90;;;;;;6715524;88;20318;-77
2023/04/10 09:24:37;;;;;;;1999.90;999.90;;;13.30;99.90;;;;;;6719128;88;20182;-77
2023/04/10 09:34:52;;;;;;;1999.90;999.90;;;13.50;99.90;;;;;;6717834;88;20181;-77
2023/04/10 09:44:54;;;;;;;1999.90;999.90;;;13.90;99.60;;;;;;6718662;88;20605;-77
2023/04/10 09:55:03;;;;;;;1999.90;999.90;;;14.50;99.50;;;;;;6719061;88;20341;-77
2023/04/10 10:05:04;;;;;;;1999.90;999.90;;;14.60;98.90;;;;;;6719604;88;20186;-76
2023/04/10 10:15:22;;;;;;;1999.90;999.90;;;15.10;98.10;;;;;;6721955;88;20264;-77
2023/04/10 10:25:24;;;;;;;1999.90;999.90;;;15.70;97.20;;;;;;6718396;88;20330;-75
2023/04/10 10:35:26;;;;;;;1999.90;999.90;;;16.10;97.00;;;;;;6713065;88;20184;-76
2023/04/10 10:45:35;;;;;;;1999.90;999.90;;;16.60;96.90;;;;;;6698634;88;20645;-76
2023/04/10 10:55:35;;;;;;;1999.90;999.90;;;17.50;94.60;;;;;;6716856;88;20201;-77
2023/04/10 11:05:56;;;;;;;1999.90;999.90;;;18.00;94.00;;;;;;6717907;88;20197;-77
2023/04/10 11:15:57;;;;;;;1999.90;999.90;;;17.80;93.30;;;;;;6716575;88;20214;-77
2023/04/10 11:25:58;;;;;;;1999.90;999.90;;;17.50;92.10;;;;;;6716392;88;20280;-76
2023/04/10 11:36:01;;;;;;;1999.90;999.90;;;17.60;91.20;;;;;;6724619;88;20199;-78
2023/04/10 11:46:06;;;;;;;1999.90;999.90;;;17.80;90.80;;;;;;6726027;88;20188;-78
2023/04/10 11:56:19;;;;;;;1999.90;999.90;;;18.10;89.20;;;;;;6717476;88;20690;-77
2023/04/10 12:06:20;;;;;;;1999.90;999.90;;;17.80;87.10;;;;;;6699254;88;20626;-78
2023/04/10 12:16:21;;;;;;;1999.90;999.90;;;17.80;87.30;;;;;;6699426;88;20616;-77
2023/04/10 12:26:22;;;;;;;1999.90;999.90;;;17.40;86.40;;;;;;6715964;88;20204;-77
2023/04/10 12:36:31;;;;;;;1999.90;999.90;;;17.70;86.10;;;;;;6715793;88;20291;-79
2023/04/10 12:46:31;;;;;;;1999.90;999.90;;;18.20;88.10;;;;;;6726720;88;20180;-79
2023/04/10 12:56:40;;;;;;;1999.90;999.90;;;17.90;87.00;;;;;;6702672;88;20202;-76
2023/04/10 13:06:46;;;;;;;1999.90;999.90;;;18.40;87.20;;;;;;6698283;88;20227;-79
2023/04/10 13:16:46;;;;;;;1999.90;999.90;;;18.70;87.00;;;;;;6702863;88;20692;-76
2023/04/10 13:26:47;;;;;;;1999.90;999.90;;;18.40;88.70;;;;;;6701195;88;20202;-77
2023/04/10 13:36:47;;;;;;;1999.90;999.90;;;18.60;88.10;;;;;;6701104;88;20257;-76
2023/04/10 13:46:48;;;;;;;1999.90;999.90;;;18.60;87.80;;;;;;6714534;88;20291;-76
2023/04/10 13:56:49;;;;;;;1999.90;999.90;;;18.80;87.20;;;;;;6713506;88;20205;-77
2023/04/10 14:06:51;;;;;;;1999.90;999.90;;;18.80;87.50;;;;;;6717440;88;20181;-77
2023/04/10 14:16:52;;;;;;;1999.90;999.90;;;19.00;86.90;;;;;;6715806;88;20265;-77
2023/04/10 14:26:56;;;;;;;1999.90;999.90;;;19.40;85.50;;;;;;6702476;77;20171;-77
2023/04/10 14:36:57;;;;;;;1999.90;999.90;;;19.70;85.30;;;;;;6699535;88;20216;-77
2023/04/10 14:46:58;;;;;;;1999.90;999.90;;;19.70;81.10;;;;;;6700124;88;20248;-76
2023/04/10 14:57:00;;;;;;;1999.90;999.90;;;19.30;78.80;;;;;;6700659;88;20619;-77
2023/04/10 15:07:01;;;;;;;1999.90;999.90;;;18.90;78.90;;;;;;6699609;88;20676;-77
2023/04/10 15:17:01;;;;;;;1999.90;999.90;;;19.20;80.20;;;;;;6698484;88;20203;-77
2023/04/10 15:27:02;;;;;;;1999.90;999.90;;;19.00;80.70;;;;;;6700186;88;20283;-77
2023/04/10 15:37:02;;;;;;;1999.90;999.90;;;18.80;82.10;;;;;;6699986;88;20716;-77
2023/04/10 15:47:03;;;;;;;1999.90;999.90;;;18.60;82.70;;;;;;6697821;88;20802;-76
2023/04/10 15:57:04;;;;;;;1999.90;999.90;;;18.20;82.60;;;;;;6706263;88;20203;-76
2023/04/10 16:07:04;;;;;;;1999.90;999.90;;;18.10;84.40;;;;;;6704654;88;20212;-77
2023/04/10 16:17:04;;;;;;;1999.90;999.90;;;17.60;85.40;;;;;;6694484;88;20629;-77
2023/04/10 16:27:07;;;;;;;1999.90;999.90;;;17.30;85.90;;;;;;6695396;88;20218;-76
2023/04/10 16:37:07;;;;;;;1999.90;999.90;;;17.10;86.70;;;;;;6699634;88;20196;-77
2023/04/10 16:47:08;;;;;;;1999.90;999.90;;;17.00;87.40;;;;;;6694957;88;20221;-77
2023/04/10 16:57:08;;;;;;;1999.90;999.90;;;16.80;88.80;;;;;;6696139;88;20326;-77
2023/04/10 17:07:09;;;;;;;1999.90;999.90;;;16.60;89.40;;;;;;6695367;88;20731;-77
2023/04/10 17:17:09;;;;;;;1999.90;999.90;;;16.60;90.50;;;;;;6696452;88;20277;-76
2023/04/10 17:27:10;;;;;;;1999.90;999.90;;;16.40;90.70;;;;;;6695493;88;20206;-75
2023/04/10 17:37:11;;;;;;;1999.90;999.90;;;16.30;91.30;;;;;;6698437;88;20274;-75
2023/04/10 17:47:11;;;;;;;1999.90;999.90;;;16.30;91.40;;;;;;6696308;88;20237;-75
2023/04/10 17:57:12;;;;;;;1999.90;999.90;;;16.10;92.00;;;;;;6696205;88;20186;-75
2023/04/10 18:07:12;;;;;;;1999.90;999.90;;;16.10;92.10;;;;;;6694734;88;20225;-75
2023/04/10 18:17:13;;;;;;;1999.90;999.90;;;16.00;92.70;;;;;;6695571;88;20207;-75
2023/04/10 18:27:14;;;;;;;1999.90;999.90;;;16.20;92.90;;;;;;6698223;88;20196;-77
2023/04/10 18:37:14;;;;;;;1999.90;999.90;;;16.00;95.30;;;;;;6695874;88;20500;-75
2023/04/10 18:47:15;;;;;;;1999.90;999.90;;;15.70;95.90;;;;;;6699741;88;20198;-76
2023/04/10 18:57:15;;;;;;;1999.90;999.90;;;15.60;96.30;;;;;;6694265;88;20755;-75
2023/04/10 19:07:16;;;;;;;1999.90;999.90;;;15.50;96.40;;;;;;6703158;88;20280;-77
2023/04/10 19:17:16;;;;;;;1999.90;999.90;;;15.60;96.40;;;;;;6696262;88;20385;-76
2023/04/10 19:27:17;;;;;;;1999.90;999.90;;;15.50;96.90;;;;;;6697408;88;20206;-75
2023/04/10 19:37:21;;;;;;;1999.90;999.90;;;15.60;97.00;;;;;;6698588;88;20268;-76
2023/04/10 19:47:21;;;;;;;1999.90;999.90;;;15.70;96.60;;;;;;6697126;88;20285;-77
2023/04/10 19:57:22;;;;;;;1999.90;999.90;;;15.70;97.60;;;;;;6695750;88;20187;-76
2023/04/10 20:07:23;;;;;;;1999.90;999.90;;;15.20;99.90;;;;;;6705160;88;20185;-75
2023/04/10 20:17:23;;;;;;;1999.90;999.90;;;13.80;99.90;;;;;;6705006;88;20708;-75
2023/04/10 20:28:05;;;;;;;1999.90;999.90;;;12.70;99.90;;;;;;6711421;77;20201;-76
2023/04/10 20:38:05;;;;;;;1999.90;999.90;;;12.20;99.90;;;;;;6714617;88;20232;-78
2023/04/10 20:48:07;;;;;;;1999.90;999.90;;;12.10;99.90;;;;;;6729446;88;20224;-77
2023/04/10 20:58:08;;;;;;;1999.90;999.90;;;11.90;99.90;;;;;;6737239;88;20231;-77
2023/04/10 21:08:10;;;;;;;1999.90;999.90;;;10.90;99.90;;;;;;6666711;88;20306;-77
2023/04/10 21:18:10;;;;;;;1999.90;999.90;;;10.40;99.90;;;;;;6701933;88;20233;-77
2023/04/10 21:28:11;;;;;;;1999.90;999.90;;;10.20;99.90;;;;;;6702955;88;20204;-77
2023/04/10 21:38:11;;;;;;;1999.90;999.90;;;10.10;99.90;;;;;;6721523;88;20205;-78
2023/04/10 21:48:12;;;;;;;1999.90;999.90;;;10.10;99.90;;;;;;6695967;88;20197;-78
2023/04/10 21:58:12;;;;;;;1999.90;999.90;;;10.10;99.90;;;;;;6718037;88;20804;-78
2023/04/10 22:08:13;;;;;;;1999.90;999.90;;;10.00;99.90;;;;;;6707147;88;20349;-78
2023/04/10 22:18:14;;;;;;;1999.90;999.90;;;9.90;99.90;;;;;;6707370;88;20200;-79
2023/04/10 22:28:14;;;;;;;1999.90;999.90;;;9.90;99.90;;;;;;6716943;88;20273;-79
2023/04/10 22:38:15;;;;;;;1999.90;999.90;;;9.70;99.90;;;;;;6683872;88;20203;-79
2023/04/10 22:48:15;;;;;;;1999.90;999.90;;;9.70;99.90;;;;;;6708329;88;20201;-78
2023/04/10 22:58:16;;;;;;;1999.90;999.90;;;9.60;99.90;;;;;;6691940;88;20604;-79
2023/04/10 23:08:16;;;;;;;1999.90;999.90;;;9.60;99.90;;;;;;6699908;88;20239;-78
2023/04/10 23:18:18;;;;;;;1999.90;999.90;;;9.40;99.90;;;;;;6698218;88;20682;-76
2023/04/10 23:28:20;;;;;;;1999.90;999.90;;;9.40;99.90;;;;;;6728190;88;20222;-78
2023/04/10 23:38:21;;;;;;;1999.90;999.90;;;9.30;99.90;;;;;;6717602;88;20185;-79
2023/04/10 23:48:21;;;;;;;1999.90;999.90;;;9.40;99.90;;;;;;6707101;88;20304;-80
2023/04/10 23:58:22;;;;;;;1999.90;999.90;;;9.50;99.90;;;;;;6693410;88;20247;-78
